sensor_id;sensor_type;location;lat;lon;timestamp;pressure;altitude;pressure_sealevel;temperature;humidity
2339;BME280;1180;51.438;6.978;2023-02-19T00:01:41;100442.16;;;12.91;100.00
2339;BME280;1180;51.438;6.978;2023-02-19T00:04:11;100448.00;;;12.80;100.00
2339;BME280;1180;51.438;6.978;2023-02-19T00:06:37;100445.38;;;12.95;100.00
2339;BME280;1180;51.438;6.978;2023-02-19T00:09:03;100434.66;;;12.88;100.00
2339;BME280;1180;51.438;6.978;2023-02-19T00:11:31;100437.81;;;12.92;100.00
2339;BME280;1180;51.438;6.978;2023-02-19T00:13:58;100443.91;;;12.91;100.00
2339;BME280;1180;51.438;6.978;2023-02-19T00:16:27;100435.88;;;12.82;100.00
2339;BME280;1180;51.438;6.978;2023-02-19T00:18:54;100441.25;;;12.92;100.00
2339;BME280;1180;51.438;6.978;2023-02-19T00:21:20;100439.88;;;12.86;100.00
2339;BME280;1180;51.438;6.978;2023-02-19T00:23:53;100443.38;;;12.85;100.00
2339;BME280;1180;51.438;6.978;2023-02-19T00:26:19;100427.84;;;13.00;100.00
2339;BME280;1180;51.438;6.978;2023-02-19T00:28:46;100433.41;;;13.07;100.00
2339;BME280;1180;51.438;6.978;2023-02-19T00:31:18;100435.47;;;13.14;100.00
2339;BME280;1180;51.438;6.978;2023-02-19T00:33:45;100434.03;;;13.10;100.00
2339;BME280;1180;51.438;6.978;2023-02-19T00:36:11;100425.50;;;12.97;100.00
2339;BME280;1180;51.438;6.978;2023-02-19T00:38:38;100426.09;;;13.00;100.00
2339;BME280;1180;51.438;6.978;2023-02-19T00:41:04;100418.16;;;12.91;100.00
2339;BME280;1180;51.438;6.978;2023-02-19T00:43:55;100413.53;;;12.83;100.00
2339;BME280;1180;51.438;6.978;2023-02-19T00:46:23;100412.16;;;12.77;100.00
2339;BME280;1180;51.438;6.978;2023-02-19T00:48:49;100410.31;;;12.79;100.00
2339;BME280;1180;51.438;6.978;2023-02-19T00:51:16;100407.31;;;12.85;100.00
2339;BME280;1180;51.438;6.978;2023-02-19T00:53:42;100409.63;;;13.03;100.00
2339;BME280;1180;51.438;6.978;2023-02-19T00:56:08;100408.56;;;13.06;100.00
2339;BME280;1180;51.438;6.978;2023-02-19T00:58:33;100408.91;;;13.01;100.00
2339;BME280;1180;51.438;6.978;2023-02-19T01:00:59;100407.13;;;12.89;100.00
2339;BME280;1180;51.438;6.978;2023-02-19T01:03:25;100398.66;;;12.86;100.00
2339;BME280;1180;51.438;6.978;2023-02-19T01:05:51;100409.91;;;12.85;100.00
2339;BME280;1180;51.438;6.978;2023-02-19T01:08:17;100408.56;;;12.80;100.00
2339;BME280;1180;51.438;6.978;2023-02-19T01:10:43;100405.56;;;12.73;100.00
2339;BME280;1180;51.438;6.978;2023-02-19T01:13:08;100403.09;;;12.84;100.00
2339;BME280;1180;51.438;6.978;2023-02-19T01:15:34;100410.75;;;12.86;100.00
2339;BME280;1180;51.438;6.978;2023-02-19T01:18:00;100400.00;;;12.79;100.00
2339;BME280;1180;51.438;6.978;2023-02-19T01:20:25;100408.25;;;12.84;100.00
2339;BME280;1180;51.438;6.978;2023-02-19T01:22:51;100405.38;;;12.89;100.00
2339;BME280;1180;51.438;6.978;2023-02-19T01:25:16;100400.31;;;12.88;100.00
2339;BME280;1180;51.438;6.978;2023-02-19T01:27:41;100397.34;;;12.81;100.00
2339;BME280;1180;51.438;6.978;2023-02-19T01:30:07;100400.53;;;12.84;100.00
2339;BME280;1180;51.438;6.978;2023-02-19T01:32:34;100401.66;;;12.80;100.00
2339;BME280;1180;51.438;6.978;2023-02-19T01:34:59;100401.44;;;12.83;100.00
2339;BME280;1180;51.438;6.978;2023-02-19T01:37:25;100410.53;;;12.89;100.00
2339;BME280;1180;51.438;6.978;2023-02-19T01:39:50;100400.44;;;12.86;100.00
2339;BME280;1180;51.438;6.978;2023-02-19T01:42:16;100404.03;;;12.96;100.00
2339;BME280;1180;51.438;6.978;2023-02-19T01:47:07;100388.06;;;12.91;100.00
2339;BME280;1180;51.438;6.978;2023-02-19T01:49:39;100397.97;;;12.97;100.00
2339;BME280;1180;51.438;6.978;2023-02-19T01:52:17;100392.72;;;12.86;100.00
2339;BME280;1180;51.438;6.978;2023-02-19T01:54:46;100404.94;;;12.69;100.00
2339;BME280;1180;51.438;6.978;2023-02-19T01:57:17;100401.34;;;12.72;100.00
2339;BME280;1180;51.438;6.978;2023-02-19T01:59:45;100402.06;;;12.74;100.00
2339;BME280;1180;51.438;6.978;2023-02-19T02:02:11;100407.94;;;12.76;100.00
2339;BME280;1180;51.438;6.978;2023-02-19T02:04:36;100398.56;;;12.75;100.00
2339;BME280;1180;51.438;6.978;2023-02-19T02:07:03;100401.03;;;12.64;100.00
2339;BME280;1180;51.438;6.978;2023-02-19T02:09:50;100399.50;;;12.74;100.00
2339;BME280;1180;51.438;6.978;2023-02-19T02:12:34;100406.50;;;12.72;100.00
2339;BME280;1180;51.438;6.978;2023-02-19T02:14:59;100401.22;;;12.74;100.00
2339;BME280;1180;51.438;6.978;2023-02-19T02:17:29;100408.38;;;12.83;100.00
2339;BME280;1180;51.438;6.978;2023-02-19T02:32:53;100411.31;;;12.51;100.00
2339;BME280;1180;51.438;6.978;2023-02-19T02:35:37;100411.72;;;12.57;100.00
2339;BME280;1180;51.438;6.978;2023-02-19T02:38:06;100415.53;;;12.52;100.00
2339;BME280;1180;51.438;6.978;2023-02-19T02:40:34;100414.00;;;12.62;100.00
2339;BME280;1180;51.438;6.978;2023-02-19T02:43:00;100406.06;;;12.65;100.00
2339;BME280;1180;51.438;6.978;2023-02-19T02:45:29;100412.47;;;12.73;100.00
2339;BME280;1180;51.438;6.978;2023-02-19T02:50:37;100421.63;;;12.64;100.00
2339;BME280;1180;51.438;6.978;2023-02-19T02:53:18;100411.22;;;12.65;100.00
2339;BME280;1180;51.438;6.978;2023-02-19T02:56:12;100425.00;;;12.51;100.00
2339;BME280;1180;51.438;6.978;2023-02-19T02:58:39;100408.28;;;12.44;100.00
2339;BME280;1180;51.438;6.978;2023-02-19T03:01:08;100412.19;;;12.37;100.00
2339;BME280;1180;51.438;6.978;2023-02-19T03:03:58;100423.13;;;12.53;100.00
2339;BME280;1180;51.438;6.978;2023-02-19T03:06:28;100425.78;;;12.39;100.00
2339;BME280;1180;51.438;6.978;2023-02-19T03:09:00;100424.47;;;12.46;100.00
2339;BME280;1180;51.438;6.978;2023-02-19T03:11:27;100432.09;;;12.48;100.00
2339;BME280;1180;51.438;6.978;2023-02-19T03:17:43;100428.06;;;12.44;100.00
2339;BME280;1180;51.438;6.978;2023-02-19T03:20:33;100441.31;;;12.65;100.00
2339;BME280;1180;51.438;6.978;2023-02-19T03:23:00;100440.84;;;12.45;100.00
2339;BME280;1180;51.438;6.978;2023-02-19T03:25:29;100441.88;;;12.55;100.00
2339;BME280;1180;51.438;6.978;2023-02-19T03:28:16;100439.97;;;12.32;100.00
2339;BME280;1180;51.438;6.978;2023-02-19T03:30:46;100437.47;;;12.57;100.00
2339;BME280;1180;51.438;6.978;2023-02-19T03:33:15;100453.09;;;12.54;100.00
2339;BME280;1180;51.438;6.978;2023-02-19T03:35:57;100457.94;;;12.46;100.00
2339;BME280;1180;51.438;6.978;2023-02-19T03:40:54;100451.25;;;12.56;100.00
2339;BME280;1180;51.438;6.978;2023-02-19T03:43:41;100449.72;;;12.54;100.00
2339;BME280;1180;51.438;6.978;2023-02-19T03:46:20;100465.06;;;12.55;100.00
2339;BME280;1180;51.438;6.978;2023-02-19T03:48:57;100468.53;;;12.54;100.00
2339;BME280;1180;51.438;6.978;2023-02-19T03:51:31;100466.69;;;12.56;100.00
2339;BME280;1180;51.438;6.978;2023-02-19T03:56:51;100472.03;;;12.53;100.00
2339;BME280;1180;51.438;6.978;2023-02-19T04:02:01;100475.59;;;12.38;100.00
2339;BME280;1180;51.438;6.978;2023-02-19T04:04:38;100484.38;;;12.48;100.00
2339;BME280;1180;51.438;6.978;2023-02-19T04:07:07;100481.97;;;12.32;100.00
2339;BME280;1180;51.438;6.978;2023-02-19T04:09:39;100486.72;;;12.38;100.00
2339;BME280;1180;51.438;6.978;2023-02-19T04:12:06;100484.69;;;12.44;100.00
2339;BME280;1180;51.438;6.978;2023-02-19T04:15:05;100496.72;;;12.43;100.00
2339;BME280;1180;51.438;6.978;2023-02-19T04:18:08;100498.81;;;12.51;100.00
2339;BME280;1180;51.438;6.978;2023-02-19T04:20:36;100508.97;;;12.67;100.00
2339;BME280;1180;51.438;6.978;2023-02-19T04:23:03;100510.19;;;12.61;100.00
2339;BME280;1180;51.438;6.978;2023-02-19T04:25:29;100513.81;;;12.44;100.00
2339;BME280;1180;51.438;6.978;2023-02-19T04:27:55;100507.66;;;12.47;100.00
2339;BME280;1180;51.438;6.978;2023-02-19T04:30:20;100507.34;;;12.51;100.00
2339;BME280;1180;51.438;6.978;2023-02-19T04:32:46;100515.88;;;12.39;100.00
2339;BME280;1180;51.438;6.978;2023-02-19T04:35:11;100516.53;;;12.55;100.00
2339;BME280;1180;51.438;6.978;2023-02-19T04:37:37;100523.31;;;12.44;100.00
2339;BME280;1180;51.438;6.978;2023-02-19T04:40:02;100532.25;;;12.23;100.00
2339;BME280;1180;51.438;6.978;2023-02-19T04:42:28;100536.13;;;12.16;100.00
2339;BME280;1180;51.438;6.978;2023-02-19T04:44:53;100538.53;;;12.05;100.00
2339;BME280;1180;51.438;6.978;2023-02-19T04:47:19;100540.16;;;12.20;100.00
2339;BME280;1180;51.438;6.978;2023-02-19T04:49:44;100534.94;;;12.07;100.00
2339;BME280;1180;51.438;6.978;2023-02-19T04:52:09;100535.41;;;12.14;100.00
2339;BME280;1180;51.438;6.978;2023-02-19T04:54:35;100541.81;;;12.21;100.00
2339;BME280;1180;51.438;6.978;2023-02-19T04:57:00;100540.97;;;12.35;100.00
2339;BME280;1180;51.438;6.978;2023-02-19T04:59:27;100546.63;;;12.40;100.00
2339;BME280;1180;51.438;6.978;2023-02-19T05:01:52;100550.78;;;12.43;100.00
2339;BME280;1180;51.438;6.978;2023-02-19T05:04:17;100552.94;;;12.22;100.00
2339;BME280;1180;51.438;6.978;2023-02-19T05:06:43;100544.38;;;12.21;100.00
2339;BME280;1180;51.438;6.978;2023-02-19T05:09:08;100556.31;;;12.37;100.00
2339;BME280;1180;51.438;6.978;2023-02-19T05:11:34;100558.34;;;12.32;100.00
2339;BME280;1180;51.438;6.978;2023-02-19T05:13:59;100560.47;;;12.25;100.00
2339;BME280;1180;51.438;6.978;2023-02-19T05:16:25;100559.53;;;12.26;100.00
2339;BME280;1180;51.438;6.978;2023-02-19T05:18:50;100559.34;;;12.29;100.00
2339;BME280;1180;51.438;6.978;2023-02-19T05:21:16;100576.38;;;12.17;100.00
2339;BME280;1180;51.438;6.978;2023-02-19T05:23:41;100574.53;;;12.19;100.00
2339;BME280;1180;51.438;6.978;2023-02-19T05:26:12;100575.06;;;12.24;100.00
2339;BME280;1180;51.438;6.978;2023-02-19T05:28:39;100592.44;;;12.06;100.00
2339;BME280;1180;51.438;6.978;2023-02-19T05:31:06;100597.78;;;12.18;100.00
2339;BME280;1180;51.438;6.978;2023-02-19T05:33:32;100594.66;;;12.12;100.00
2339;BME280;1180;51.438;6.978;2023-02-19T05:35:57;100586.66;;;12.17;100.00
2339;BME280;1180;51.438;6.978;2023-02-19T05:38:23;100592.16;;;12.25;100.00
2339;BME280;1180;51.438;6.978;2023-02-19T05:40:49;100590.69;;;12.21;100.00
2339;BME280;1180;51.438;6.978;2023-02-19T05:43:15;100592.06;;;12.27;100.00
2339;BME280;1180;51.438;6.978;2023-02-19T05:45:40;100589.41;;;12.14;100.00
2339;BME280;1180;51.438;6.978;2023-02-19T05:48:06;100598.97;;;12.26;100.00
2339;BME280;1180;51.438;6.978;2023-02-19T05:50:34;100599.41;;;12.33;100.00
2339;BME280;1180;51.438;6.978;2023-02-19T05:53:00;100600.63;;;12.13;100.00
2339;BME280;1180;51.438;6.978;2023-02-19T05:55:26;100608.97;;;12.02;100.00
2339;BME280;1180;51.438;6.978;2023-02-19T05:57:51;100607.41;;;11.99;100.00
2339;BME280;1180;51.438;6.978;2023-02-19T06:00:18;100602.09;;;12.03;100.00
2339;BME280;1180;51.438;6.978;2023-02-19T06:02:45;100613.69;;;12.10;100.00
2339;BME280;1180;51.438;6.978;2023-02-19T06:05:11;100619.06;;;11.91;100.00
2339;BME280;1180;51.438;6.978;2023-02-19T06:07:36;100611.16;;;11.94;100.00
2339;BME280;1180;51.438;6.978;2023-02-19T06:10:05;100608.13;;;11.87;100.00
2339;BME280;1180;51.438;6.978;2023-02-19T06:12:30;100602.72;;;11.92;100.00
2339;BME280;1180;51.438;6.978;2023-02-19T06:14:55;100615.53;;;12.08;100.00
2339;BME280;1180;51.438;6.978;2023-02-19T06:17:21;100613.88;;;12.07;100.00
2339;BME280;1180;51.438;6.978;2023-02-19T06:19:46;100612.84;;;12.09;100.00
2339;BME280;1180;51.438;6.978;2023-02-19T06:22:13;100615.41;;;12.09;100.00
2339;BME280;1180;51.438;6.978;2023-02-19T06:24:39;100618.75;;;12.11;100.00
2339;BME280;1180;51.438;6.978;2023-02-19T06:27:08;100626.34;;;12.13;100.00
2339;BME280;1180;51.438;6.978;2023-02-19T06:29:34;100638.28;;;11.99;100.00
2339;BME280;1180;51.438;6.978;2023-02-19T06:32:03;100637.50;;;11.83;100.00
2339;BME280;1180;51.438;6.978;2023-02-19T06:34:29;100643.50;;;11.98;100.00
2339;BME280;1180;51.438;6.978;2023-02-19T06:36:54;100657.03;;;12.02;100.00
2339;BME280;1180;51.438;6.978;2023-02-19T06:39:19;100650.41;;;11.97;100.00
2339;BME280;1180;51.438;6.978;2023-02-19T06:41:44;100648.28;;;11.59;100.00
2339;BME280;1180;51.438;6.978;2023-02-19T06:44:10;100662.34;;;11.68;100.00
2339;BME280;1180;51.438;6.978;2023-02-19T06:46:35;100649.88;;;11.76;100.00
2339;BME280;1180;51.438;6.978;2023-02-19T06:49:03;100665.97;;;11.80;100.00
2339;BME280;1180;51.438;6.978;2023-02-19T06:51:29;100659.38;;;11.90;100.00
2339;BME280;1180;51.438;6.978;2023-02-19T06:53:55;100671.72;;;11.69;100.00
2339;BME280;1180;51.438;6.978;2023-02-19T06:56:33;100679.91;;;11.61;100.00
2339;BME280;1180;51.438;6.978;2023-02-19T06:59:01;100685.16;;;11.44;100.00
2339;BME280;1180;51.438;6.978;2023-02-19T07:01:30;100684.75;;;11.35;100.00
2339;BME280;1180;51.438;6.978;2023-02-19T07:03:56;100685.72;;;11.49;100.00
2339;BME280;1180;51.438;6.978;2023-02-19T07:06:23;100695.78;;;11.37;100.00
2339;BME280;1180;51.438;6.978;2023-02-19T07:08:49;100698.56;;;11.49;100.00
2339;BME280;1180;51.438;6.978;2023-02-19T07:11:14;100694.09;;;11.52;100.00
2339;BME280;1180;51.438;6.978;2023-02-19T07:13:40;100704.63;;;11.48;100.00
2339;BME280;1180;51.438;6.978;2023-02-19T07:16:07;100716.38;;;11.52;100.00
2339;BME280;1180;51.438;6.978;2023-02-19T07:18:34;100712.47;;;11.61;100.00
2339;BME280;1180;51.438;6.978;2023-02-19T07:21:07;100713.91;;;11.81;100.00
2339;BME280;1180;51.438;6.978;2023-02-19T07:23:33;100725.56;;;11.56;100.00
2339;BME280;1180;51.438;6.978;2023-02-19T07:25:59;100724.97;;;11.67;100.00
2339;BME280;1180;51.438;6.978;2023-02-19T07:28:25;100736.31;;;11.79;100.00
2339;BME280;1180;51.438;6.978;2023-02-19T07:30:50;100745.53;;;11.67;100.00
2339;BME280;1180;51.438;6.978;2023-02-19T07:33:16;100748.13;;;11.67;100.00
2339;BME280;1180;51.438;6.978;2023-02-19T07:35:49;100753.34;;;11.65;100.00
2339;BME280;1180;51.438;6.978;2023-02-19T07:38:19;100761.06;;;11.65;100.00
2339;BME280;1180;51.438;6.978;2023-02-19T07:40:58;100758.53;;;11.80;100.00
2339;BME280;1180;51.438;6.978;2023-02-19T07:43:26;100758.06;;;11.73;100.00
2339;BME280;1180;51.438;6.978;2023-02-19T07:45:52;100764.25;;;11.85;100.00
2339;BME280;1180;51.438;6.978;2023-02-19T07:48:18;100773.06;;;11.81;100.00
2339;BME280;1180;51.438;6.978;2023-02-19T07:50:59;100773.38;;;11.91;100.00
2339;BME280;1180;51.438;6.978;2023-02-19T07:53:26;100771.72;;;11.90;100.00
2339;BME280;1180;51.438;6.978;2023-02-19T07:55:53;100771.94;;;12.01;100.00
2339;BME280;1180;51.438;6.978;2023-02-19T07:58:18;100765.22;;;11.98;100.00
2339;BME280;1180;51.438;6.978;2023-02-19T08:00:44;100780.97;;;11.92;100.00
2339;BME280;1180;51.438;6.978;2023-02-19T08:03:10;100780.91;;;11.94;100.00
2339;BME280;1180;51.438;6.978;2023-02-19T08:05:39;100782.06;;;12.04;100.00
2339;BME280;1180;51.438;6.978;2023-02-19T08:08:07;100786.41;;;12.04;100.00
2339;BME280;1180;51.438;6.978;2023-02-19T08:10:32;100788.28;;;12.00;100.00
2339;BME280;1180;51.438;6.978;2023-02-19T08:13:16;100794.94;;;11.88;100.00
2339;BME280;1180;51.438;6.978;2023-02-19T08:15:52;100812.03;;;11.89;100.00
2339;BME280;1180;51.438;6.978;2023-02-19T08:18:23;100804.66;;;11.83;100.00
2339;BME280;1180;51.438;6.978;2023-02-19T08:20:49;100802.91;;;11.99;100.00
2339;BME280;1180;51.438;6.978;2023-02-19T08:23:15;100809.75;;;12.15;100.00
2339;BME280;1180;51.438;6.978;2023-02-19T08:25:41;100804.91;;;11.94;100.00
2339;BME280;1180;51.438;6.978;2023-02-19T08:28:08;100812.38;;;11.83;100.00
2339;BME280;1180;51.438;6.978;2023-02-19T08:30:35;100808.84;;;12.00;100.00
2339;BME280;1180;51.438;6.978;2023-02-19T08:33:03;100809.13;;;11.95;100.00
2339;BME280;1180;51.438;6.978;2023-02-19T08:35:29;100809.19;;;12.10;100.00
2339;BME280;1180;51.438;6.978;2023-02-19T08:37:56;100810.19;;;12.07;100.00
2339;BME280;1180;51.438;6.978;2023-02-19T08:40:22;100810.16;;;12.23;100.00
2339;BME280;1180;51.438;6.978;2023-02-19T08:42:48;100811.66;;;12.27;100.00
2339;BME280;1180;51.438;6.978;2023-02-19T08:45:13;100818.59;;;12.25;100.00
2339;BME280;1180;51.438;6.978;2023-02-19T08:47:39;100820.91;;;12.30;100.00
2339;BME280;1180;51.438;6.978;2023-02-19T08:50:05;100817.25;;;12.34;100.00
2339;BME280;1180;51.438;6.978;2023-02-19T08:52:32;100829.44;;;12.16;100.00
2339;BME280;1180;51.438;6.978;2023-02-19T08:55:01;100826.25;;;12.27;100.00
2339;BME280;1180;51.438;6.978;2023-02-19T08:57:26;100827.41;;;12.21;100.00
2339;BME280;1180;51.438;6.978;2023-02-19T08:59:55;100836.66;;;12.40;100.00
2339;BME280;1180;51.438;6.978;2023-02-19T09:02:23;100832.88;;;12.31;100.00
2339;BME280;1180;51.438;6.978;2023-02-19T09:04:49;100832.25;;;12.27;100.00
2339;BME280;1180;51.438;6.978;2023-02-19T09:07:15;100832.50;;;12.23;100.00
2339;BME280;1180;51.438;6.978;2023-02-19T09:09:41;100838.69;;;12.35;100.00
2339;BME280;1180;51.438;6.978;2023-02-19T09:12:07;100850.28;;;12.42;100.00
2339;BME280;1180;51.438;6.978;2023-02-19T09:14:34;100855.44;;;12.42;100.00
2339;BME280;1180;51.438;6.978;2023-02-19T09:17:00;100862.09;;;12.61;100.00
2339;BME280;1180;51.438;6.978;2023-02-19T09:19:27;100867.69;;;12.67;100.00
2339;BME280;1180;51.438;6.978;2023-02-19T09:21:52;100872.53;;;12.43;100.00
2339;BME280;1180;51.438;6.978;2023-02-19T09:24:18;100870.16;;;12.54;100.00
2339;BME280;1180;51.438;6.978;2023-02-19T09:26:44;100870.63;;;12.47;100.00
2339;BME280;1180;51.438;6.978;2023-02-19T09:29:09;100874.56;;;12.52;98.94
2339;BME280;1180;51.438;6.978;2023-02-19T09:31:34;100883.78;;;12.26;100.00
2339;BME280;1180;51.438;6.978;2023-02-19T09:34:00;100888.34;;;12.21;100.00
2339;BME280;1180;51.438;6.978;2023-02-19T09:36:25;100881.56;;;12.20;100.00
2339;BME280;1180;51.438;6.978;2023-02-19T09:38:50;100874.63;;;12.36;100.00
2339;BME280;1180;51.438;6.978;2023-02-19T09:43:45;100882.63;;;12.32;100.00
2339;BME280;1180;51.438;6.978;2023-02-19T09:46:35;100881.59;;;12.34;100.00
2339;BME280;1180;51.438;6.978;2023-02-19T09:49:24;100898.84;;;12.02;100.00
2339;BME280;1180;51.438;6.978;2023-02-19T09:51:55;100892.66;;;11.88;100.00
2339;BME280;1180;51.438;6.978;2023-02-19T09:54:24;100897.09;;;12.02;100.00
2339;BME280;1180;51.438;6.978;2023-02-19T09:56:52;100914.91;;;12.21;100.00
2339;BME280;1180;51.438;6.978;2023-02-19T09:59:22;100906.59;;;12.32;100.00
2339;BME280;1180;51.438;6.978;2023-02-19T10:01:53;100921.38;;;12.45;100.00
2339;BME280;1180;51.438;6.978;2023-02-19T10:04:21;100922.34;;;12.42;100.00
2339;BME280;1180;51.438;6.978;2023-02-19T10:06:48;100935.19;;;12.27;100.00
2339;BME280;1180;51.438;6.978;2023-02-19T10:09:24;100937.91;;;12.24;100.00
2339;BME280;1180;51.438;6.978;2023-02-19T10:11:53;100948.97;;;12.26;100.00
2339;BME280;1180;51.438;6.978;2023-02-19T10:14:35;100955.34;;;12.19;100.00
2339;BME280;1180;51.438;6.978;2023-02-19T10:17:03;100970.44;;;12.25;100.00
2339;BME280;1180;51.438;6.978;2023-02-19T10:19:30;100960.13;;;12.25;100.00
2339;BME280;1180;51.438;6.978;2023-02-19T10:21:57;100954.41;;;12.36;97.49
2339;BME280;1180;51.438;6.978;2023-02-19T10:24:26;100965.94;;;12.45;97.54
2339;BME280;1180;51.438;6.978;2023-02-19T10:26:53;100958.53;;;12.55;97.05
2339;BME280;1180;51.438;6.978;2023-02-19T10:29:19;100976.59;;;12.69;96.40
2339;BME280;1180;51.438;6.978;2023-02-19T10:31:46;100985.63;;;12.46;96.37
2339;BME280;1180;51.438;6.978;2023-02-19T10:34:20;100991.28;;;12.37;97.23
2339;BME280;1180;51.438;6.978;2023-02-19T10:36:48;100995.66;;;12.51;96.49
2339;BME280;1180;51.438;6.978;2023-02-19T10:39:28;100994.34;;;12.60;96.75
2339;BME280;1180;51.438;6.978;2023-02-19T10:41:55;100997.69;;;12.76;96.66
2339;BME280;1180;51.438;6.978;2023-02-19T10:44:24;100995.19;;;12.75;97.74
2339;BME280;1180;51.438;6.978;2023-02-19T10:46:56;100994.44;;;12.73;97.83
2339;BME280;1180;51.438;6.978;2023-02-19T10:49:28;100988.34;;;12.90;95.97
2339;BME280;1180;51.438;6.978;2023-02-19T10:52:00;100988.88;;;12.80;95.45
2339;BME280;1180;51.438;6.978;2023-02-19T10:54:32;100990.22;;;12.71;95.61
2339;BME280;1180;51.438;6.978;2023-02-19T11:02:40;101006.63;;;13.15;92.33
2339;BME280;1180;51.438;6.978;2023-02-19T11:07:52;101021.03;;;13.04;92.61
2339;BME280;1180;51.438;6.978;2023-02-19T11:10:32;101014.22;;;13.03;92.62
2339;BME280;1180;51.438;6.978;2023-02-19T11:13:01;101012.00;;;12.96;91.63
2339;BME280;1180;51.438;6.978;2023-02-19T11:15:29;101010.66;;;13.05;90.62
2339;BME280;1180;51.438;6.978;2023-02-19T11:20:21;101015.28;;;13.14;91.81
2339;BME280;1180;51.438;6.978;2023-02-19T11:22:48;101021.72;;;13.07;91.60
2339;BME280;1180;51.438;6.978;2023-02-19T11:27:54;101015.81;;;13.05;92.38
2339;BME280;1180;51.438;6.978;2023-02-19T11:32:56;101003.78;;;12.90;94.00
2339;BME280;1180;51.438;6.978;2023-02-19T11:35:37;101001.28;;;13.04;92.22
2339;BME280;1180;51.438;6.978;2023-02-19T11:38:07;101007.09;;;13.22;91.51
2339;BME280;1180;51.438;6.978;2023-02-19T11:40:38;101002.78;;;13.23;91.61
2339;BME280;1180;51.438;6.978;2023-02-19T11:43:26;101010.34;;;13.26;93.48
2339;BME280;1180;51.438;6.978;2023-02-19T11:57:17;100995.81;;;13.97;91.94
2339;BME280;1180;51.438;6.978;2023-02-19T12:02:26;100999.78;;;13.74;90.41
2339;BME280;1180;51.438;6.978;2023-02-19T12:05:24;101001.19;;;13.65;89.92
2339;BME280;1180;51.438;6.978;2023-02-19T12:10:50;101002.75;;;13.08;91.80
2339;BME280;1180;51.438;6.978;2023-02-19T12:13:31;101006.03;;;12.65;94.02
2339;BME280;1180;51.438;6.978;2023-02-19T12:16:38;101006.78;;;12.98;94.17
2339;BME280;1180;51.438;6.978;2023-02-19T12:25:20;101028.44;;;12.79;91.00
2339;BME280;1180;51.438;6.978;2023-02-19T12:27:52;101029.94;;;12.67;92.14
2339;BME280;1180;51.438;6.978;2023-02-19T12:39:10;101053.38;;;12.79;91.30
2339;BME280;1180;51.438;6.978;2023-02-19T12:42:01;101043.56;;;12.69;87.46
2339;BME280;1180;51.438;6.978;2023-02-19T12:44:39;101043.66;;;12.68;88.86
2339;BME280;1180;51.438;6.978;2023-02-19T12:47:12;101034.75;;;12.57;88.96
2339;BME280;1180;51.438;6.978;2023-02-19T12:49:43;101035.59;;;12.58;89.36
2339;BME280;1180;51.438;6.978;2023-02-19T12:52:22;101039.56;;;12.80;89.85
2339;BME280;1180;51.438;6.978;2023-02-19T12:54:53;101031.41;;;12.88;87.73
2339;BME280;1180;51.438;6.978;2023-02-19T12:57:28;101041.44;;;12.92;84.56
2339;BME280;1180;51.438;6.978;2023-02-19T13:00:00;101032.25;;;12.88;84.93
2339;BME280;1180;51.438;6.978;2023-02-19T13:02:49;101024.94;;;13.11;83.80
2339;BME280;1180;51.438;6.978;2023-02-19T13:08:38;101041.00;;;13.31;84.92
2339;BME280;1180;51.438;6.978;2023-02-19T13:11:14;101040.03;;;13.48;84.04
2339;BME280;1180;51.438;6.978;2023-02-19T13:13:48;101038.16;;;13.35;82.22
2339;BME280;1180;51.438;6.978;2023-02-19T13:16:17;101041.00;;;13.31;83.39
2339;BME280;1180;51.438;6.978;2023-02-19T13:18:47;101049.53;;;13.47;83.24
2339;BME280;1180;51.438;6.978;2023-02-19T13:21:15;101050.16;;;13.51;83.29
2339;BME280;1180;51.438;6.978;2023-02-19T13:24:02;101038.72;;;13.40;83.13
2339;BME280;1180;51.438;6.978;2023-02-19T13:26:56;101041.88;;;13.46;83.78
2339;BME280;1180;51.438;6.978;2023-02-19T13:29:41;101049.22;;;13.37;84.42
2339;BME280;1180;51.438;6.978;2023-02-19T13:37:22;101071.41;;;13.09;85.27
2339;BME280;1180;51.438;6.978;2023-02-19T13:39:53;101066.97;;;12.97;85.10
2339;BME280;1180;51.438;6.978;2023-02-19T13:42:24;101072.03;;;12.82;85.61
2339;BME280;1180;51.438;6.978;2023-02-19T13:44:51;101071.28;;;12.80;86.80
2339;BME280;1180;51.438;6.978;2023-02-19T13:50:25;101078.69;;;12.86;87.03
2339;BME280;1180;51.438;6.978;2023-02-19T13:52:53;101079.59;;;12.85;87.87
2339;BME280;1180;51.438;6.978;2023-02-19T13:55:45;101075.09;;;13.05;86.96
2339;BME280;1180;51.438;6.978;2023-02-19T13:58:36;101078.06;;;13.13;85.99
2339;BME280;1180;51.438;6.978;2023-02-19T14:01:08;101091.47;;;13.04;86.51
2339;BME280;1180;51.438;6.978;2023-02-19T14:06:09;101112.00;;;12.74;88.88
2339;BME280;1180;51.438;6.978;2023-02-19T14:09:01;101113.66;;;12.59;92.41
2339;BME280;1180;51.438;6.978;2023-02-19T14:14:35;101130.28;;;12.37;96.93
2339;BME280;1180;51.438;6.978;2023-02-19T14:25:30;101137.84;;;11.71;100.00
2339;BME280;1180;51.438;6.978;2023-02-19T14:28:04;101134.38;;;11.72;100.00
2339;BME280;1180;51.438;6.978;2023-02-19T14:30:32;101139.41;;;11.91;100.00
2339;BME280;1180;51.438;6.978;2023-02-19T14:33:00;101140.66;;;12.02;100.00
2339;BME280;1180;51.438;6.978;2023-02-19T14:35:35;101135.41;;;12.03;100.00
2339;BME280;1180;51.438;6.978;2023-02-19T14:38:02;101137.84;;;12.06;99.59
2339;BME280;1180;51.438;6.978;2023-02-19T14:40:34;101127.47;;;12.08;98.87
2339;BME280;1180;51.438;6.978;2023-02-19T14:43:03;101129.59;;;11.99;99.20
2339;BME280;1180;51.438;6.978;2023-02-19T14:45:36;101129.25;;;12.23;99.57
2339;BME280;1180;51.438;6.978;2023-02-19T14:48:04;101123.94;;;12.42;97.51
2339;BME280;1180;51.438;6.978;2023-02-19T14:50:33;101130.44;;;12.34;96.46
2339;BME280;1180;51.438;6.978;2023-02-19T14:53:03;101118.81;;;12.26;98.05
2339;BME280;1180;51.438;6.978;2023-02-19T14:55:33;101126.63;;;12.41;97.31
2339;BME280;1180;51.438;6.978;2023-02-19T14:58:03;101123.22;;;12.40;97.00
2339;BME280;1180;51.438;6.978;2023-02-19T15:00:37;101108.59;;;12.41;97.52
2339;BME280;1180;51.438;6.978;2023-02-19T15:03:04;101116.84;;;12.48;96.40